sensor_id;sensor_type;location;lat;lon;timestamp;P1;durP1;ratioP1;P2;durP2;ratioP2
82495;SDS011;72133;42.522;24.800;2024-03-22T00:01:58;10.15;;;6.72;;
82495;SDS011;72133;42.522;24.800;2024-03-22T00:04:23;11.85;;;7.28;;
82495;SDS011;72133;42.522;24.800;2024-03-22T00:06:49;8.82;;;6.80;;
82495;SDS011;72133;42.522;24.800;2024-03-22T00:09:15;10.43;;;7.97;;
82495;SDS011;72133;42.522;24.800;2024-03-22T00:11:42;11.57;;;7.32;;
82495;SDS011;72133;42.522;24.800;2024-03-22T00:14:08;11.50;;;7.75;;
82495;SDS011;72133;42.522;24.800;2024-03-22T00:16:35;10.00;;;7.93;;
82495;SDS011;72133;42.522;24.800;2024-03-22T00:19:00;7.80;;;6.45;;
82495;SDS011;72133;42.522;24.800;2024-03-22T00:21:26;8.40;;;6.82;;
82495;SDS011;72133;42.522;24.800;2024-03-22T00:23:53;11.57;;;7.90;;
82495;SDS011;72133;42.522;24.800;2024-03-22T00:26:19;9.98;;;7.47;;
82495;SDS011;72133;42.522;24.800;2024-03-22T00:28:44;8.88;;;7.13;;
82495;SDS011;72133;42.522;24.800;2024-03-22T00:31:10;10.90;;;8.05;;
82495;SDS011;72133;42.522;24.800;2024-03-22T00:33:35;13.02;;;8.43;;
82495;SDS011;72133;42.522;24.800;2024-03-22T00:36:01;11.25;;;9.27;;
82495;SDS011;72133;42.522;24.800;2024-03-22T00:38:27;12.73;;;9.48;;
82495;SDS011;72133;42.522;24.800;2024-03-22T00:40:52;12.13;;;8.98;;
82495;SDS011;72133;42.522;24.800;2024-03-22T00:43:19;11.13;;;7.40;;
82495;SDS011;72133;42.522;24.800;2024-03-22T00:45:45;11.30;;;7.68;;
82495;SDS011;72133;42.522;24.800;2024-03-22T00:48:10;11.10;;;8.25;;
82495;SDS011;72133;42.522;24.800;2024-03-22T00:50:36;11.57;;;8.43;;
82495;SDS011;72133;42.522;24.800;2024-03-22T00:53:01;10.55;;;8.35;;
82495;SDS011;72133;42.522;24.800;2024-03-22T00:55:28;12.93;;;8.98;;
82495;SDS011;72133;42.522;24.800;2024-03-22T00:57:54;15.50;;;8.85;;
82495;SDS011;72133;42.522;24.800;2024-03-22T01:00:19;12.85;;;8.48;;
82495;SDS011;72133;42.522;24.800;2024-03-22T01:02:45;11.55;;;8.13;;
82495;SDS011;72133;42.522;24.800;2024-03-22T01:05:11;12.20;;;8.40;;
82495;SDS011;72133;42.522;24.800;2024-03-22T01:07:36;11.48;;;8.15;;
82495;SDS011;72133;42.522;24.800;2024-03-22T01:10:05;11.63;;;8.52;;
82495;SDS011;72133;42.522;24.800;2024-03-22T01:12:31;11.75;;;8.00;;
82495;SDS011;72133;42.522;24.800;2024-03-22T01:14:58;12.32;;;7.65;;
82495;SDS011;72133;42.522;24.800;2024-03-22T01:17:24;10.57;;;7.35;;
82495;SDS011;72133;42.522;24.800;2024-03-22T01:19:49;11.02;;;7.43;;
82495;SDS011;72133;42.522;24.800;2024-03-22T01:22:17;9.43;;;7.10;;
82495;SDS011;72133;42.522;24.800;2024-03-22T01:24:43;10.90;;;7.90;;
82495;SDS011;72133;42.522;24.800;2024-03-22T01:27:09;10.20;;;7.70;;
82495;SDS011;72133;42.522;24.800;2024-03-22T01:29:34;8.55;;;6.55;;
82495;SDS011;72133;42.522;24.800;2024-03-22T01:32:01;9.13;;;6.88;;
82495;SDS011;72133;42.522;24.800;2024-03-22T01:45:32;9.98;;;6.93;;
82495;SDS011;72133;42.522;24.800;2024-03-22T01:47:58;9.25;;;6.80;;
82495;SDS011;72133;42.522;24.800;2024-03-22T01:50:25;10.88;;;7.32;;
82495;SDS011;72133;42.522;24.800;2024-03-22T01:52:51;10.30;;;7.43;;
82495;SDS011;72133;42.522;24.800;2024-03-22T01:55:16;9.88;;;7.03;;
82495;SDS011;72133;42.522;24.800;2024-03-22T01:57:42;11.90;;;8.07;;
82495;SDS011;72133;42.522;24.800;2024-03-22T02:00:08;10.70;;;7.72;;
82495;SDS011;72133;42.522;24.800;2024-03-22T02:02:34;11.50;;;8.25;;
82495;SDS011;72133;42.522;24.800;2024-03-22T02:05:21;11.18;;;7.95;;
82495;SDS011;72133;42.522;24.800;2024-03-22T02:07:47;12.75;;;8.75;;
82495;SDS011;72133;42.522;24.800;2024-03-22T02:10:13;12.57;;;8.32;;
82495;SDS011;72133;42.522;24.800;2024-03-22T02:12:39;11.85;;;8.77;;
82495;SDS011;72133;42.522;24.800;2024-03-22T02:15:05;11.30;;;8.48;;
82495;SDS011;72133;42.522;24.800;2024-03-22T02:17:34;14.15;;;9.18;;
82495;SDS011;72133;42.522;24.800;2024-03-22T02:20:00;13.18;;;9.73;;
82495;SDS011;72133;42.522;24.800;2024-03-22T02:22:27;10.45;;;8.45;;
82495;SDS011;72133;42.522;24.800;2024-03-22T02:24:53;11.38;;;7.90;;
82495;SDS011;72133;42.522;24.800;2024-03-22T02:27:19;10.98;;;7.85;;
82495;SDS011;72133;42.522;24.800;2024-03-22T02:29:44;10.00;;;7.68;;
82495;SDS011;72133;42.522;24.800;2024-03-22T02:32:10;11.32;;;7.47;;
82495;SDS011;72133;42.522;24.800;2024-03-22T02:34:35;10.32;;;7.30;;
82495;SDS011;72133;42.522;24.800;2024-03-22T02:37:01;12.23;;;8.65;;
82495;SDS011;72133;42.522;24.800;2024-03-22T02:39:27;11.82;;;8.55;;
82495;SDS011;72133;42.522;24.800;2024-03-22T02:41:53;11.38;;;8.10;;
82495;SDS011;72133;42.522;24.800;2024-03-22T02:44:19;9.23;;;7.35;;
82495;SDS011;72133;42.522;24.800;2024-03-22T02:46:45;10.30;;;7.78;;
82495;SDS011;72133;42.522;24.800;2024-03-22T02:49:11;9.48;;;7.25;;
82495;SDS011;72133;42.522;24.800;2024-03-22T02:51:36;11.48;;;7.32;;
82495;SDS011;72133;42.522;24.800;2024-03-22T02:54:02;11.25;;;8.13;;
82495;SDS011;72133;42.522;24.800;2024-03-22T02:56:27;9.38;;;7.78;;
82495;SDS011;72133;42.522;24.800;2024-03-22T02:58:53;11.13;;;7.78;;
82495;SDS011;72133;42.522;24.800;2024-03-22T03:01:19;13.73;;;8.60;;
82495;SDS011;72133;42.522;24.800;2024-03-22T03:03:44;11.90;;;7.90;;
82495;SDS011;72133;42.522;24.800;2024-03-22T03:06:10;10.50;;;7.45;;
82495;SDS011;72133;42.522;24.800;2024-03-22T03:08:38;9.70;;;7.15;;
82495;SDS011;72133;42.522;24.800;2024-03-22T03:11:04;12.85;;;8.38;;
82495;SDS011;72133;42.522;24.800;2024-03-22T03:13:29;13.10;;;8.50;;
82495;SDS011;72133;42.522;24.800;2024-03-22T03:15:55;10.40;;;7.20;;
82495;SDS011;72133;42.522;24.800;2024-03-22T03:18:21;10.38;;;7.15;;
82495;SDS011;72133;42.522;24.800;2024-03-22T03:20:46;10.27;;;7.93;;
82495;SDS011;72133;42.522;24.800;2024-03-22T03:23:12;9.90;;;8.13;;
82495;SDS011;72133;42.522;24.800;2024-03-22T03:25:38;11.18;;;7.53;;
82495;SDS011;72133;42.522;24.800;2024-03-22T03:28:03;11.30;;;7.88;;
82495;SDS011;72133;42.522;24.800;2024-03-22T03:30:29;10.32;;;7.85;;
82495;SDS011;72133;42.522;24.800;2024-03-22T03:32:54;11.00;;;7.70;;
82495;SDS011;72133;42.522;24.800;2024-03-22T03:35:20;10.15;;;8.00;;
82495;SDS011;72133;42.522;24.800;2024-03-22T03:37:45;11.20;;;7.53;;
82495;SDS011;72133;42.522;24.800;2024-03-22T03:40:11;9.70;;;7.13;;
82495;SDS011;72133;42.522;24.800;2024-03-22T03:42:37;10.80;;;7.57;;
82495;SDS011;72133;42.522;24.800;2024-03-22T03:45:02;13.63;;;8.50;;
82495;SDS011;72133;42.522;24.800;2024-03-22T03:47:28;11.90;;;8.48;;
82495;SDS011;72133;42.522;24.800;2024-03-22T03:49:54;11.93;;;7.88;;
82495;SDS011;72133;42.522;24.800;2024-03-22T03:52:19;10.82;;;8.68;;
82495;SDS011;72133;42.522;24.800;2024-03-22T03:54:45;11.38;;;8.60;;
82495;SDS011;72133;42.522;24.800;2024-03-22T03:57:11;10.73;;;8.15;;
82495;SDS011;72133;42.522;24.800;2024-03-22T03:59:39;9.65;;;7.45;;
82495;SDS011;72133;42.522;24.800;2024-03-22T04:02:05;11.57;;;8.50;;
82495;SDS011;72133;42.522;24.800;2024-03-22T04:04:30;13.00;;;8.77;;
82495;SDS011;72133;42.522;24.800;2024-03-22T04:06:56;14.85;;;8.95;;
82495;SDS011;72133;42.522;24.800;2024-03-22T04:09:21;14.25;;;9.70;;
82495;SDS011;72133;42.522;24.800;2024-03-22T04:11:47;10.93;;;7.65;;
82495;SDS011;72133;42.522;24.800;2024-03-22T04:14:12;11.95;;;7.90;;
82495;SDS011;72133;42.522;24.800;2024-03-22T04:16:38;12.65;;;8.45;;
82495;SDS011;72133;42.522;24.800;2024-03-22T04:19:04;11.75;;;8.45;;
82495;SDS011;72133;42.522;24.800;2024-03-22T04:21:29;12.32;;;9.70;;
82495;SDS011;72133;42.522;24.800;2024-03-22T04:23:55;15.55;;;9.70;;
82495;SDS011;72133;42.522;24.800;2024-03-22T04:26:20;13.05;;;8.30;;
82495;SDS011;72133;42.522;24.800;2024-03-22T04:28:46;11.88;;;8.90;;
82495;SDS011;72133;42.522;24.800;2024-03-22T04:31:12;12.32;;;8.77;;
82495;SDS011;72133;42.522;24.800;2024-03-22T04:33:37;11.05;;;8.50;;
82495;SDS011;72133;42.522;24.800;2024-03-22T04:36:03;12.23;;;8.10;;
82495;SDS011;72133;42.522;24.800;2024-03-22T04:38:29;12.30;;;8.40;;
82495;SDS011;72133;42.522;24.800;2024-03-22T04:40:55;12.98;;;8.77;;
82495;SDS011;72133;42.522;24.800;2024-03-22T04:43:22;12.27;;;8.90;;
82495;SDS011;72133;42.522;24.800;2024-03-22T04:45:49;12.57;;;9.50;;
82495;SDS011;72133;42.522;24.800;2024-03-22T04:48:19;12.90;;;9.25;;
82495;SDS011;72133;42.522;24.800;2024-03-22T04:50:46;12.82;;;9.68;;
82495;SDS011;72133;42.522;24.800;2024-03-22T04:53:15;12.45;;;9.68;;
82495;SDS011;72133;42.522;24.800;2024-03-22T04:55:42;12.15;;;9.23;;
82495;SDS011;72133;42.522;24.800;2024-03-22T04:58:12;13.05;;;9.30;;
82495;SDS011;72133;42.522;24.800;2024-03-22T05:00:41;12.85;;;8.60;;
82495;SDS011;72133;42.522;24.800;2024-03-22T05:03:07;11.57;;;9.02;;
82495;SDS011;72133;42.522;24.800;2024-03-22T05:05:33;12.60;;;8.35;;
82495;SDS011;72133;42.522;24.800;2024-03-22T05:07:59;12.05;;;9.10;;
82495;SDS011;72133;42.522;24.800;2024-03-22T05:10:24;13.18;;;9.35;;
82495;SDS011;72133;42.522;24.800;2024-03-22T05:12:50;12.27;;;8.85;;
82495;SDS011;72133;42.522;24.800;2024-03-22T05:15:15;11.52;;;8.82;;
82495;SDS011;72133;42.522;24.800;2024-03-22T05:17:41;12.63;;;9.18;;
82495;SDS011;72133;42.522;24.800;2024-03-22T05:20:08;11.98;;;7.97;;
82495;SDS011;72133;42.522;24.800;2024-03-22T05:22:38;11.43;;;8.90;;
82495;SDS011;72133;42.522;24.800;2024-03-22T05:25:04;11.93;;;9.00;;
82495;SDS011;72133;42.522;24.800;2024-03-22T05:27:33;15.05;;;10.75;;
82495;SDS011;72133;42.522;24.800;2024-03-22T05:29:59;11.25;;;8.98;;
82495;SDS011;72133;42.522;24.800;2024-03-22T05:32:25;14.73;;;10.82;;
82495;SDS011;72133;42.522;24.800;2024-03-22T05:34:51;14.77;;;10.88;;
82495;SDS011;72133;42.522;24.800;2024-03-22T05:37:17;13.43;;;10.27;;
82495;SDS011;72133;42.522;24.800;2024-03-22T05:39:42;12.48;;;9.77;;
82495;SDS011;72133;42.522;24.800;2024-03-22T05:42:08;12.93;;;9.70;;
82495;SDS011;72133;42.522;24.800;2024-03-22T05:44:34;14.20;;;10.45;;
82495;SDS011;72133;42.522;24.800;2024-03-22T05:47:00;14.68;;;10.20;;
82495;SDS011;72133;42.522;24.800;2024-03-22T05:49:26;14.02;;;10.15;;
82495;SDS011;72133;42.522;24.800;2024-03-22T05:51:51;13.18;;;9.60;;
82495;SDS011;72133;42.522;24.800;2024-03-22T05:54:17;13.38;;;10.05;;
82495;SDS011;72133;42.522;24.800;2024-03-22T05:56:42;12.77;;;9.50;;
82495;SDS011;72133;42.522;24.800;2024-03-22T05:59:08;13.25;;;9.35;;
82495;SDS011;72133;42.522;24.800;2024-03-22T06:01:34;12.50;;;10.50;;
82495;SDS011;72133;42.522;24.800;2024-03-22T06:03:59;14.93;;;10.82;;
82495;SDS011;72133;42.522;24.800;2024-03-22T06:06:25;13.57;;;10.60;;
82495;SDS011;72133;42.522;24.800;2024-03-22T06:08:53;13.82;;;10.02;;
82495;SDS011;72133;42.522;24.800;2024-03-22T06:11:20;12.40;;;9.40;;
82495;SDS011;72133;42.522;24.800;2024-03-22T06:13:48;13.18;;;10.00;;
82495;SDS011;72133;42.522;24.800;2024-03-22T06:16:14;12.23;;;9.88;;
82495;SDS011;72133;42.522;24.800;2024-03-22T06:18:40;12.77;;;9.55;;
82495;SDS011;72133;42.522;24.800;2024-03-22T06:21:06;13.45;;;10.80;;
82495;SDS011;72133;42.522;24.800;2024-03-22T06:38:32;13.07;;;11.15;;
82495;SDS011;72133;42.522;24.800;2024-03-22T06:41:01;12.85;;;10.52;;
82495;SDS011;72133;42.522;24.800;2024-03-22T06:43:26;11.15;;;9.63;;
82495;SDS011;72133;42.522;24.800;2024-03-22T06:45:52;11.60;;;10.27;;
82495;SDS011;72133;42.522;24.800;2024-03-22T06:48:17;11.48;;;9.10;;
82495;SDS011;72133;42.522;24.800;2024-03-22T06:50:43;12.45;;;9.60;;
82495;SDS011;72133;42.522;24.800;2024-03-22T06:53:09;13.45;;;8.77;;
82495;SDS011;72133;42.522;24.800;2024-03-22T06:55:35;12.38;;;9.00;;
82495;SDS011;72133;42.522;24.800;2024-03-22T06:58:01;12.50;;;9.73;;
82495;SDS011;72133;42.522;24.800;2024-03-22T07:00:27;10.07;;;8.88;;
82495;SDS011;72133;42.522;24.800;2024-03-22T07:02:52;10.18;;;8.27;;
82495;SDS011;72133;42.522;24.800;2024-03-22T07:05:18;9.05;;;7.32;;
82495;SDS011;72133;42.522;24.800;2024-03-22T07:07:43;9.85;;;7.53;;
82495;SDS011;72133;42.522;24.800;2024-03-22T07:10:09;9.68;;;7.18;;
82495;SDS011;72133;42.522;24.800;2024-03-22T07:12:35;7.38;;;5.88;;
82495;SDS011;72133;42.522;24.800;2024-03-22T07:15:00;8.00;;;5.75;;
82495;SDS011;72133;42.522;24.800;2024-03-22T07:17:27;8.30;;;5.53;;
82495;SDS011;72133;42.522;24.800;2024-03-22T07:19:53;6.88;;;5.30;;
82495;SDS011;72133;42.522;24.800;2024-03-22T07:22:19;7.43;;;5.50;;
82495;SDS011;72133;42.522;24.800;2024-03-22T07:24:45;8.48;;;5.57;;
82495;SDS011;72133;42.522;24.800;2024-03-22T07:27:11;6.75;;;4.90;;
82495;SDS011;72133;42.522;24.800;2024-03-22T07:29:37;7.97;;;5.53;;
82495;SDS011;72133;42.522;24.800;2024-03-22T07:32:03;7.60;;;6.00;;
82495;SDS011;72133;42.522;24.800;2024-03-22T07:34:29;13.73;;;12.43;;
82495;SDS011;72133;42.522;24.800;2024-03-22T07:36:54;7.43;;;6.15;;
82495;SDS011;72133;42.522;24.800;2024-03-22T07:39:20;9.93;;;6.68;;
82495;SDS011;72133;42.522;24.800;2024-03-22T07:41:46;8.18;;;7.13;;
82495;SDS011;72133;42.522;24.800;2024-03-22T07:44:11;7.90;;;6.10;;
82495;SDS011;72133;42.522;24.800;2024-03-22T07:46:37;7.93;;;6.28;;
82495;SDS011;72133;42.522;24.800;2024-03-22T07:49:02;7.10;;;6.03;;
82495;SDS011;72133;42.522;24.800;2024-03-22T07:51:29;8.27;;;6.07;;
82495;SDS011;72133;42.522;24.800;2024-03-22T07:53:55;7.80;;;5.80;;
82495;SDS011;72133;42.522;24.800;2024-03-22T07:56:21;7.68;;;5.65;;
82495;SDS011;72133;42.522;24.800;2024-03-22T07:58:47;8.18;;;6.10;;
82495;SDS011;72133;42.522;24.800;2024-03-22T08:01:12;8.65;;;5.80;;
82495;SDS011;72133;42.522;24.800;2024-03-22T08:03:38;7.15;;;5.60;;
82495;SDS011;72133;42.522;24.800;2024-03-22T08:06:04;8.98;;;5.63;;
82495;SDS011;72133;42.522;24.800;2024-03-22T08:08:29;7.78;;;5.97;;
82495;SDS011;72133;42.522;24.800;2024-03-22T08:10:55;7.03;;;5.53;;
82495;SDS011;72133;42.522;24.800;2024-03-22T08:13:20;6.57;;;5.97;;
82495;SDS011;72133;42.522;24.800;2024-03-22T08:15:46;7.95;;;5.85;;
82495;SDS011;72133;42.522;24.800;2024-03-22T08:18:12;8.13;;;5.90;;
82495;SDS011;72133;42.522;24.800;2024-03-22T08:20:38;7.38;;;6.18;;
82495;SDS011;72133;42.522;24.800;2024-03-22T08:23:04;6.60;;;5.53;;
82495;SDS011;72133;42.522;24.800;2024-03-22T08:25:30;7.53;;;6.10;;
82495;SDS011;72133;42.522;24.800;2024-03-22T08:27:56;6.50;;;5.75;;
82495;SDS011;72133;42.522;24.800;2024-03-22T08:30:23;6.53;;;5.75;;
82495;SDS011;72133;42.522;24.800;2024-03-22T08:32:50;7.68;;;6.20;;
82495;SDS011;72133;42.522;24.800;2024-03-22T08:35:15;7.05;;;5.80;;
82495;SDS011;72133;42.522;24.800;2024-03-22T08:37:41;7.93;;;6.32;;
82495;SDS011;72133;42.522;24.800;2024-03-22T08:40:07;9.70;;;7.18;;
82495;SDS011;72133;42.522;24.800;2024-03-22T08:42:33;6.78;;;6.00;;
82495;SDS011;72133;42.522;24.800;2024-03-22T08:44:58;7.97;;;6.78;;
82495;SDS011;72133;42.522;24.800;2024-03-22T08:47:24;8.75;;;6.97;;
82495;SDS011;72133;42.522;24.800;2024-03-22T08:49:50;8.32;;;6.93;;
82495;SDS011;72133;42.522;24.800;2024-03-22T08:52:15;10.50;;;7.88;;
82495;SDS011;72133;42.522;24.800;2024-03-22T08:54:41;8.07;;;6.90;;
82495;SDS011;72133;42.522;24.800;2024-03-22T08:57:06;11.80;;;6.90;;
82495;SDS011;72133;42.522;24.800;2024-03-22T08:59:32;8.35;;;6.85;;
82495;SDS011;72133;42.522;24.800;2024-03-22T09:01:58;8.77;;;6.45;;
82495;SDS011;72133;42.522;24.800;2024-03-22T09:04:24;7.78;;;6.60;;
82495;SDS011;72133;42.522;24.800;2024-03-22T09:06:50;8.80;;;6.80;;
82495;SDS011;72133;42.522;24.800;2024-03-22T09:09:16;9.73;;;7.30;;
82495;SDS011;72133;42.522;24.800;2024-03-22T09:11:42;10.70;;;7.22;;
82495;SDS011;72133;42.522;24.800;2024-03-22T09:14:07;8.90;;;7.38;;
82495;SDS011;72133;42.522;24.800;2024-03-22T09:16:33;8.98;;;7.65;;
82495;SDS011;72133;42.522;24.800;2024-03-22T09:18:59;10.07;;;8.10;;
82495;SDS011;72133;42.522;24.800;2024-03-22T09:21:25;9.07;;;8.02;;
82495;SDS011;72133;42.522;24.800;2024-03-22T09:23:50;8.00;;;7.15;;
82495;SDS011;72133;42.522;24.800;2024-03-22T09:26:16;10.98;;;7.97;;
82495;SDS011;72133;42.522;24.800;2024-03-22T09:28:41;8.23;;;7.20;;
82495;SDS011;72133;42.522;24.800;2024-03-22T09:31:07;9.68;;;7.50;;
82495;SDS011;72133;42.522;24.800;2024-03-22T09:33:33;9.45;;;8.15;;
82495;SDS011;72133;42.522;24.800;2024-03-22T09:35:59;10.35;;;7.63;;
82495;SDS011;72133;42.522;24.800;2024-03-22T09:38:25;8.98;;;7.22;;
82495;SDS011;72133;42.522;24.800;2024-03-22T09:40:51;13.50;;;9.85;;
82495;SDS011;72133;42.522;24.800;2024-03-22T09:43:20;11.48;;;8.48;;
82495;SDS011;72133;42.522;24.800;2024-03-22T09:45:49;11.77;;;9.07;;
82495;SDS011;72133;42.522;24.800;2024-03-22T09:48:18;9.07;;;7.35;;
82495;SDS011;72133;42.522;24.800;2024-03-22T09:50:47;8.88;;;6.82;;
82495;SDS011;72133;42.522;24.800;2024-03-22T09:53:19;8.90;;;6.95;;
82495;SDS011;72133;42.522;24.800;2024-03-22T09:55:47;9.15;;;7.15;;
82495;SDS011;72133;42.522;24.800;2024-03-22T09:58:13;8.43;;;7.03;;
82495;SDS011;72133;42.522;24.800;2024-03-22T10:00:39;8.35;;;6.50;;
82495;SDS011;72133;42.522;24.800;2024-03-22T10:03:05;8.60;;;6.65;;
82495;SDS011;72133;42.522;24.800;2024-03-22T10:05:31;9.52;;;6.75;;
82495;SDS011;72133;42.522;24.800;2024-03-22T10:07:57;10.70;;;7.18;;
82495;SDS011;72133;42.522;24.800;2024-03-22T10:10:23;8.60;;;5.97;;
82495;SDS011;72133;42.522;24.800;2024-03-22T10:12:48;10.07;;;9.02;;
82495;SDS011;72133;42.522;24.800;2024-03-22T10:15:14;7.05;;;5.57;;
82495;SDS011;72133;42.522;24.800;2024-03-22T10:17:40;7.50;;;5.30;;
82495;SDS011;72133;42.522;24.800;2024-03-22T10:20:06;7.88;;;5.50;;
82495;SDS011;72133;42.522;24.800;2024-03-22T10:22:41;7.33;;;6.03;;
82495;SDS011;72133;42.522;24.800;2024-03-22T10:25:28;8.13;;;6.20;;
82495;SDS011;72133;42.522;24.800;2024-03-22T10:27:54;8.27;;;5.45;;
82495;SDS011;72133;42.522;24.800;2024-03-22T10:30:20;6.93;;;5.50;;
82495;SDS011;72133;42.522;24.800;2024-03-22T10:32:49;7.40;;;5.35;;
82495;SDS011;72133;42.522;24.800;2024-03-22T10:35:15;5.85;;;4.07;;
82495;SDS011;72133;42.522;24.800;2024-03-22T10:37:42;7.00;;;4.55;;
82495;SDS011;72133;42.522;24.800;2024-03-22T10:40:08;6.57;;;4.95;;
82495;SDS011;72133;42.522;24.800;2024-03-22T10:42:40;6.97;;;5.15;;
82495;SDS011;72133;42.522;24.800;2024-03-22T10:45:08;5.63;;;4.20;;
82495;SDS011;72133;42.522;24.800;2024-03-22T10:47:35;6.43;;;4.97;;
82495;SDS011;72133;42.522;24.800;2024-03-22T10:52:36;7.68;;;4.50;;
82495;SDS011;72133;42.522;24.800;2024-03-22T10:55:08;6.35;;;5.25;;
82495;SDS011;72133;42.522;24.800;2024-03-22T11:09:22;7.30;;;5.75;;
82495;SDS011;72133;42.522;24.800;2024-03-22T11:11:48;8.45;;;7.28;;
82495;SDS011;72133;42.522;24.800;2024-03-22T11:14:14;6.30;;;5.30;;
82495;SDS011;72133;42.522;24.800;2024-03-22T11:16:43;6.05;;;4.68;;
82495;SDS011;72133;42.522;24.800;2024-03-22T11:19:09;5.65;;;4.50;;
82495;SDS011;72133;42.522;24.800;2024-03-22T11:21:35;7.00;;;4.53;;
82495;SDS011;72133;42.522;24.800;2024-03-22T11:24:01;6.63;;;4.93;;
82495;SDS011;72133;42.522;24.800;2024-03-22T11:26:26;7.80;;;6.00;;
82495;SDS011;72133;42.522;24.800;2024-03-22T11:40:49;12.23;;;7.22;;
82495;SDS011;72133;42.522;24.800;2024-03-22T11:43:15;8.85;;;5.85;;
82495;SDS011;72133;42.522;24.800;2024-03-22T11:58:18;6.70;;;4.90;;
82495;SDS011;72133;42.522;24.800;2024-03-22T12:00:44;5.50;;;4.35;;
82495;SDS011;72133;42.522;24.800;2024-03-22T12:03:09;6.90;;;3.70;;
82495;SDS011;72133;42.522;24.800;2024-03-22T12:05:35;6.60;;;4.43;;
82495;SDS011;72133;42.522;24.800;2024-03-22T12:08:01;7.03;;;4.50;;
82495;SDS011;72133;42.522;24.800;2024-03-22T12:10:27;5.93;;;4.43;;
82495;SDS011;72133;42.522;24.800;2024-03-22T12:12:53;7.10;;;4.10;;
82495;SDS011;72133;42.522;24.800;2024-03-22T12:15:19;6.15;;;3.83;;
82495;SDS011;72133;42.522;24.800;2024-03-22T12:17:44;6.05;;;4.15;;
82495;SDS011;72133;42.522;24.800;2024-03-22T12:20:10;5.25;;;3.88;;
82495;SDS011;72133;42.522;24.800;2024-03-22T12:22:35;6.00;;;4.63;;
82495;SDS011;72133;42.522;24.800;2024-03-22T12:25:01;6.70;;;4.35;;
82495;SDS011;72133;42.522;24.800;2024-03-22T12:27:29;5.85;;;4.40;;
82495;SDS011;72133;42.522;24.800;2024-03-22T12:29:55;6.40;;;4.80;;
82495;SDS011;72133;42.522;24.800;2024-03-22T12:32:20;6.57;;;3.65;;
82495;SDS011;72133;42.522;24.800;2024-03-22T12:34:46;5.45;;;4.22;;
82495;SDS011;72133;42.522;24.800;2024-03-22T12:37:11;6.00;;;3.83;;
82495;SDS011;72133;42.522;24.800;2024-03-22T12:39:37;5.72;;;3.65;;
82495;SDS011;72133;42.522;24.800;2024-03-22T12:42:03;5.60;;;3.70;;
82495;SDS011;72133;42.522;24.800;2024-03-22T12:44:28;5.70;;;3.72;;
82495;SDS011;72133;42.522;24.800;2024-03-22T12:46:54;6.35;;;4.13;;
82495;SDS011;72133;42.522;24.800;2024-03-22T12:49:20;4.90;;;3.53;;
82495;SDS011;72133;42.522;24.800;2024-03-22T12:51:45;5.60;;;3.33;;
82495;SDS011;72133;42.522;24.800;2024-03-22T12:54:11;4.35;;;3.03;;
82495;SDS011;72133;42.522;24.800;2024-03-22T12:56:39;4.75;;;3.42;;
82495;SDS011;72133;42.522;24.800;2024-03-22T12:59:05;4.78;;;3.30;;
82495;SDS011;72133;42.522;24.800;2024-03-22T13:01:32;4.90;;;3.28;;
82495;SDS011;72133;42.522;24.800;2024-03-22T13:03:58;4.90;;;3.30;;
82495;SDS011;72133;42.522;24.800;2024-03-22T13:06:24;4.93;;;2.95;;
82495;SDS011;72133;42.522;24.800;2024-03-22T13:08:49;4.88;;;2.97;;
82495;SDS011;72133;42.522;24.800;2024-03-22T13:11:15;4.93;;;3.28;;
82495;SDS011;72133;42.522;24.800;2024-03-22T13:13:42;4.43;;;2.92;;
82495;SDS011;72133;42.522;24.800;2024-03-22T13:28:26;6.35;;;3.20;;
82495;SDS011;72133;42.522;24.800;2024-03-22T13:31:04;4.55;;;3.33;;
82495;SDS011;72133;42.522;24.800;2024-03-22T14:04:25;4.10;;;3.08;;
82495;SDS011;72133;42.522;24.800;2024-03-22T14:06:51;3.55;;;2.50;;
82495;SDS011;72133;42.522;24.800;2024-03-22T14:09:17;4.90;;;3.05;;
82495;SDS011;72133;42.522;24.800;2024-03-22T14:11:43;5.45;;;3.63;;
82495;SDS011;72133;42.522;24.800;2024-03-22T14:14:09;6.70;;;3.60;;
82495;SDS011;72133;42.522;24.800;2024-03-22T14:16:37;8.05;;;5.65;;
82495;SDS011;72133;42.522;24.800;2024-03-22T14:19:03;5.03;;;3.65;;
82495;SDS011;72133;42.522;24.800;2024-03-22T14:21:28;4.57;;;3.42;;
82495;SDS011;72133;42.522;24.800;2024-03-22T14:23:54;5.13;;;3.13;;
82495;SDS011;72133;42.522;24.800;2024-03-22T14:26:20;3.92;;;2.55;;
82495;SDS011;72133;42.522;24.800;2024-03-22T14:28:46;4.47;;;3.17;;
82495;SDS011;72133;42.522;24.800;2024-03-22T14:31:12;5.00;;;3.50;;
82495;SDS011;72133;42.522;24.800;2024-03-22T14:33:38;6.68;;;3.70;;
82495;SDS011;72133;42.522;24.800;2024-03-22T14:36:05;4.97;;;3.03;;
82495;SDS011;72133;42.522;24.800;2024-03-22T14:38:32;5.25;;;3.30;;
82495;SDS011;72133;42.522;24.800;2024-03-22T14:40:58;6.20;;;3.40;;
82495;SDS011;72133;42.522;24.800;2024-03-22T14:43:24;4.85;;;3.35;;
82495;SDS011;72133;42.522;24.800;2024-03-22T14:45:53;5.30;;;3.35;;
82495;SDS011;72133;42.522;24.800;2024-03-22T14:48:23;4.97;;;3.20;;
82495;SDS011;72133;42.522;24.800;2024-03-22T14:50:49;4.80;;;3.25;;
82495;SDS011;72133;42.522;24.800;2024-03-22T14:53:21;4.80;;;3.10;;
82495;SDS011;72133;42.522;24.800;2024-03-22T14:55:57;4.43;;;3.15;;
82495;SDS011;72133;42.522;24.800;2024-03-22T14:58:24;5.45;;;2.67;;
82495;SDS011;72133;42.522;24.800;2024-03-22T15:00:52;5.40;;;3.35;;
82495;SDS011;72133;42.522;24.800;2024-03-22T15:03:18;4.70;;;3.20;;
82495;SDS011;72133;42.522;24.800;2024-03-22T15:05:44;4.15;;;2.92;;
82495;SDS011;72133;42.522;24.800;2024-03-22T15:08:09;5.50;;;2.80;;
82495;SDS011;72133;42.522;24.800;2024-03-22T15:10:36;3.78;;;2.60;;
82495;SDS011;72133;42.522;24.800;2024-03-22T15:13:02;4.47;;;2.90;;
82495;SDS011;72133;42.522;24.800;2024-03-22T15:15:27;4.20;;;2.78;;
82495;SDS011;72133;42.522;24.800;2024-03-22T15:17:54;5.00;;;3.35;;
82495;SDS011;72133;42.522;24.800;2024-03-22T15:20:19;4.30;;;3.00;;
82495;SDS011;72133;42.522;24.800;2024-03-22T15:22:45;4.68;;;3.53;;
82495;SDS011;72133;42.522;24.800;2024-03-22T15:25:11;4.55;;;3.20;;
82495;SDS011;72133;42.522;24.800;2024-03-22T15:27:36;4.95;;;3.15;;
82495;SDS011;72133;42.522;24.800;2024-03-22T15:30:02;4.53;;;3.13;;
82495;SDS011;72133;42.522;24.800;2024-03-22T15:32:31;5.40;;;2.88;;
82495;SDS011;72133;42.522;24.800;2024-03-22T15:34:56;4.65;;;3.22;;
82495;SDS011;72133;42.522;24.800;2024-03-22T15:37:22;3.80;;;3.03;;
82495;SDS011;72133;42.522;24.800;2024-03-22T15:39:49;5.13;;;3.45;;
82495;SDS011;72133;42.522;24.800;2024-03-22T15:42:15;4.55;;;3.30;;
82495;SDS011;72133;42.522;24.800;2024-03-22T15:44:40;4.90;;;2.90;;
82495;SDS011;72133;42.522;24.800;2024-03-22T15:47:06;6.00;;;3.05;;
82495;SDS011;72133;42.522;24.800;2024-03-22T15:49:33;4.45;;;3.03;;
82495;SDS011;72133;42.522;24.800;2024-03-22T15:51:58;6.03;;;3.60;;
82495;SDS011;72133;42.522;24.800;2024-03-22T15:54:24;6.75;;;3.58;;
82495;SDS011;72133;42.522;24.800;2024-03-22T15:56:50;6.20;;;3.25;;
82495;SDS011;72133;42.522;24.800;2024-03-22T15:59:15;5.00;;;2.85;;
82495;SDS011;72133;42.522;24.800;2024-03-22T16:01:41;5.95;;;3.70;;
82495;SDS011;72133;42.522;24.800;2024-03-22T16:04:07;7.57;;;4.82;;
82495;SDS011;72133;42.522;24.800;2024-03-22T16:06:32;5.25;;;3.45;;
82495;SDS011;72133;42.522;24.800;2024-03-22T16:08:58;6.03;;;3.67;;
82495;SDS011;72133;42.522;24.800;2024-03-22T16:11:24;5.72;;;3.30;;